sensor_id;sensor_type;location;lat;lon;timestamp;pressure;altitude;pressure_sealevel;temperature;humidity
20755;BME280;26385;48.470;7.938;2022-08-25T00:01:23;99796.69;;;25.49;51.60
20755;BME280;26385;48.470;7.938;2022-08-25T00:03:50;99802.97;;;25.47;51.78
20755;BME280;26385;48.470;7.938;2022-08-25T00:06:16;99800.63;;;25.41;52.06
20755;BME280;26385;48.470;7.938;2022-08-25T00:08:42;99801.47;;;25.41;51.82
20755;BME280;26385;48.470;7.938;2022-08-25T00:11:16;99799.88;;;25.37;52.06
20755;BME280;26385;48.470;7.938;2022-08-25T00:13:44;99808.84;;;25.35;51.94
20755;BME280;26385;48.470;7.938;2022-08-25T00:16:11;99802.97;;;25.28;52.37
20755;BME280;26385;48.470;7.938;2022-08-25T00:18:41;99803.97;;;25.25;52.47
20755;BME280;26385;48.470;7.938;2022-08-25T00:21:07;99809.47;;;25.21;52.41
20755;BME280;26385;48.470;7.938;2022-08-25T00:23:32;99809.53;;;25.19;52.46
20755;BME280;26385;48.470;7.938;2022-08-25T00:25:58;99806.03;;;25.19;52.76
20755;BME280;26385;48.470;7.938;2022-08-25T00:28:23;99812.25;;;25.18;52.79
20755;BME280;26385;48.470;7.938;2022-08-25T00:30:49;99809.03;;;25.11;53.16
20755;BME280;26385;48.470;7.938;2022-08-25T00:33:16;99803.78;;;25.10;53.26
20755;BME280;26385;48.470;7.938;2022-08-25T00:35:41;99803.97;;;25.05;53.61
20755;BME280;26385;48.470;7.938;2022-08-25T00:38:09;99807.88;;;24.96;53.82
20755;BME280;26385;48.470;7.938;2022-08-25T00:40:35;99797.34;;;24.95;54.04
20755;BME280;26385;48.470;7.938;2022-08-25T00:43:01;99810.94;;;24.87;54.36
20755;BME280;26385;48.470;7.938;2022-08-25T00:45:27;99813.78;;;24.83;54.17
20755;BME280;26385;48.470;7.938;2022-08-25T00:47:52;99814.84;;;24.79;53.97
20755;BME280;26385;48.470;7.938;2022-08-25T00:50:18;99822.06;;;24.75;54.12
20755;BME280;26385;48.470;7.938;2022-08-25T00:52:49;99821.13;;;24.76;53.96
20755;BME280;26385;48.470;7.938;2022-08-25T00:55:22;99820.03;;;24.82;53.83
20755;BME280;26385;48.470;7.938;2022-08-25T00:58:04;99816.16;;;24.68;54.28
20755;BME280;26385;48.470;7.938;2022-08-25T01:00:35;99820.22;;;24.77;54.08
20755;BME280;26385;48.470;7.938;2022-08-25T01:03:02;99821.13;;;24.76;54.21
20755;BME280;26385;48.470;7.938;2022-08-25T01:05:27;99831.81;;;24.75;54.18
20755;BME280;26385;48.470;7.938;2022-08-25T01:07:54;99820.78;;;24.63;54.64
20755;BME280;26385;48.470;7.938;2022-08-25T01:10:22;99827.84;;;24.64;54.64
20755;BME280;26385;48.470;7.938;2022-08-25T01:12:49;99822.56;;;24.63;54.71
20755;BME280;26385;48.470;7.938;2022-08-25T01:15:15;99834.00;;;24.65;54.56
20755;BME280;26385;48.470;7.938;2022-08-25T01:17:53;99823.50;;;24.62;54.80
20755;BME280;26385;48.470;7.938;2022-08-25T01:20:21;99825.97;;;24.66;54.31
20755;BME280;26385;48.470;7.938;2022-08-25T01:22:48;99823.50;;;24.62;55.12
20755;BME280;26385;48.470;7.938;2022-08-25T01:25:35;99824.69;;;24.55;55.20
20755;BME280;26385;48.470;7.938;2022-08-25T01:28:05;99816.63;;;24.58;54.70
20755;BME280;26385;48.470;7.938;2022-08-25T01:30:30;99818.28;;;24.60;55.20
20755;BME280;26385;48.470;7.938;2022-08-25T01:32:56;99828.47;;;24.49;55.33
20755;BME280;26385;48.470;7.938;2022-08-25T01:35:22;99833.28;;;24.39;56.01
20755;BME280;26385;48.470;7.938;2022-08-25T01:37:48;99834.09;;;24.41;55.65
20755;BME280;26385;48.470;7.938;2022-08-25T01:40:13;99837.72;;;24.39;55.95
20755;BME280;26385;48.470;7.938;2022-08-25T01:42:47;99833.47;;;24.35;56.30
20755;BME280;26385;48.470;7.938;2022-08-25T01:45:16;99820.41;;;24.30;56.46
20755;BME280;26385;48.470;7.938;2022-08-25T01:47:42;99827.41;;;24.31;56.88
20755;BME280;26385;48.470;7.938;2022-08-25T01:50:08;99817.56;;;24.13;57.23
20755;BME280;26385;48.470;7.938;2022-08-25T01:52:45;99817.38;;;24.18;56.94
20755;BME280;26385;48.470;7.938;2022-08-25T01:55:11;99819.84;;;24.22;56.79
20755;BME280;26385;48.470;7.938;2022-08-25T01:57:36;99820.72;;;24.23;57.06
20755;BME280;26385;48.470;7.938;2022-08-25T02:00:04;99812.72;;;24.02;57.80
20755;BME280;26385;48.470;7.938;2022-08-25T02:02:30;99817.34;;;23.97;57.69
20755;BME280;26385;48.470;7.938;2022-08-25T02:04:55;99820.53;;;24.05;57.40
20755;BME280;26385;48.470;7.938;2022-08-25T02:07:20;99819.06;;;23.98;57.90
20755;BME280;26385;48.470;7.938;2022-08-25T02:09:45;99817.94;;;23.82;58.17
20755;BME280;26385;48.470;7.938;2022-08-25T02:12:11;99814.94;;;23.91;57.68
20755;BME280;26385;48.470;7.938;2022-08-25T02:14:37;99821.78;;;23.97;57.65
20755;BME280;26385;48.470;7.938;2022-08-25T02:17:03;99818.38;;;23.93;58.01
20755;BME280;26385;48.470;7.938;2022-08-25T02:19:28;99814.22;;;23.86;58.32
20755;BME280;26385;48.470;7.938;2022-08-25T02:21:55;99810.78;;;23.84;58.19
20755;BME280;26385;48.470;7.938;2022-08-25T02:24:21;99829.16;;;23.89;57.94
20755;BME280;26385;48.470;7.938;2022-08-25T02:26:46;99821.88;;;23.72;58.85
20755;BME280;26385;48.470;7.938;2022-08-25T02:29:12;99823.13;;;23.62;59.21
20755;BME280;26385;48.470;7.938;2022-08-25T02:31:38;99812.63;;;23.35;59.92
20755;BME280;26385;48.470;7.938;2022-08-25T02:34:04;99818.41;;;23.46;60.26
20755;BME280;26385;48.470;7.938;2022-08-25T02:36:30;99817.41;;;23.49;59.81
20755;BME280;26385;48.470;7.938;2022-08-25T02:38:58;99813.22;;;23.43;60.31
20755;BME280;26385;48.470;7.938;2022-08-25T02:41:25;99816.50;;;23.50;59.70
20755;BME280;26385;48.470;7.938;2022-08-25T02:43:51;99814.78;;;23.49;59.52
20755;BME280;26385;48.470;7.938;2022-08-25T02:46:18;99817.69;;;23.41;59.66
20755;BME280;26385;48.470;7.938;2022-08-25T02:48:44;99809.06;;;23.36;59.82
20755;BME280;26385;48.470;7.938;2022-08-25T02:51:10;99807.19;;;23.40;59.99
20755;BME280;26385;48.470;7.938;2022-08-25T02:53:37;99821.41;;;23.36;59.95
20755;BME280;26385;48.470;7.938;2022-08-25T02:56:08;99815.97;;;23.40;59.94
20755;BME280;26385;48.470;7.938;2022-08-25T02:58:34;99820.09;;;23.24;60.25
20755;BME280;26385;48.470;7.938;2022-08-25T03:01:00;99814.75;;;23.25;60.52
20755;BME280;26385;48.470;7.938;2022-08-25T03:03:25;99812.88;;;23.29;60.02
20755;BME280;26385;48.470;7.938;2022-08-25T03:05:51;99811.03;;;23.31;59.99
20755;BME280;26385;48.470;7.938;2022-08-25T03:08:16;99813.63;;;23.33;60.12
20755;BME280;26385;48.470;7.938;2022-08-25T03:10:42;99808.47;;;23.29;60.15
20755;BME280;26385;48.470;7.938;2022-08-25T03:13:07;99798.63;;;23.33;60.22
20755;BME280;26385;48.470;7.938;2022-08-25T03:15:33;99795.19;;;23.31;60.33
20755;BME280;26385;48.470;7.938;2022-08-25T03:18:02;99785.47;;;23.31;60.24
20755;BME280;26385;48.470;7.938;2022-08-25T03:20:28;99796.13;;;23.28;60.71
20755;BME280;26385;48.470;7.938;2022-08-25T03:22:53;99796.91;;;23.32;60.76
20755;BME280;26385;48.470;7.938;2022-08-25T03:25:19;99808.47;;;23.29;60.45
20755;BME280;26385;48.470;7.938;2022-08-25T03:28:03;99803.41;;;23.23;61.25
20755;BME280;26385;48.470;7.938;2022-08-25T03:30:30;99804.06;;;23.28;60.89
20755;BME280;26385;48.470;7.938;2022-08-25T03:32:55;99801.88;;;23.16;61.57
20755;BME280;26385;48.470;7.938;2022-08-25T03:35:22;99801.09;;;23.14;61.57
20755;BME280;26385;48.470;7.938;2022-08-25T03:37:47;99807.38;;;23.10;61.28
20755;BME280;26385;48.470;7.938;2022-08-25T03:40:14;99814.38;;;22.88;61.70
20755;BME280;26385;48.470;7.938;2022-08-25T03:42:41;99825.13;;;22.82;62.18
20755;BME280;26385;48.470;7.938;2022-08-25T03:45:07;99821.44;;;22.87;61.99
20755;BME280;26385;48.470;7.938;2022-08-25T03:47:33;99815.34;;;22.84;62.15
20755;BME280;26385;48.470;7.938;2022-08-25T03:49:59;99816.19;;;22.86;62.14
20755;BME280;26385;48.470;7.938;2022-08-25T03:52:24;99815.41;;;22.82;61.86
20755;BME280;26385;48.470;7.938;2022-08-25T03:54:50;99811.03;;;22.81;62.03
20755;BME280;26385;48.470;7.938;2022-08-25T03:57:15;99811.19;;;22.76;62.40
20755;BME280;26385;48.470;7.938;2022-08-25T03:59:40;99813.25;;;22.68;62.92
20755;BME280;26385;48.470;7.938;2022-08-25T04:02:06;99814.94;;;22.71;62.89
20755;BME280;26385;48.470;7.938;2022-08-25T04:04:32;99811.47;;;22.69;62.81
20755;BME280;26385;48.470;7.938;2022-08-25T04:06:57;99808.06;;;22.65;63.47
20755;BME280;26385;48.470;7.938;2022-08-25T04:09:23;99817.91;;;22.60;63.33
20755;BME280;26385;48.470;7.938;2022-08-25T04:11:49;99818.75;;;22.62;63.42
20755;BME280;26385;48.470;7.938;2022-08-25T04:14:15;99818.84;;;22.59;63.79
20755;BME280;26385;48.470;7.938;2022-08-25T04:16:40;99824.91;;;22.61;63.60
20755;BME280;26385;48.470;7.938;2022-08-25T04:19:07;99816.38;;;22.55;64.09
20755;BME280;26385;48.470;7.938;2022-08-25T04:21:34;99818.94;;;22.56;63.76
20755;BME280;26385;48.470;7.938;2022-08-25T04:24:01;99813.94;;;22.48;63.95
20755;BME280;26385;48.470;7.938;2022-08-25T04:26:30;99822.66;;;22.51;64.08
20755;BME280;26385;48.470;7.938;2022-08-25T04:28:57;99813.75;;;22.53;64.04
20755;BME280;26385;48.470;7.938;2022-08-25T04:31:24;99816.50;;;22.50;64.14
20755;BME280;26385;48.470;7.938;2022-08-25T04:33:50;99813.66;;;22.56;64.02
20755;BME280;26385;48.470;7.938;2022-08-25T04:36:17;99817.22;;;22.55;63.84
20755;BME280;26385;48.470;7.938;2022-08-25T04:38:44;99814.59;;;22.55;63.51
20755;BME280;26385;48.470;7.938;2022-08-25T04:41:12;99808.19;;;22.62;63.22
20755;BME280;26385;48.470;7.938;2022-08-25T04:43:39;99814.28;;;22.64;63.08
20755;BME280;26385;48.470;7.938;2022-08-25T04:46:07;99803.78;;;22.63;63.42
20755;BME280;26385;48.470;7.938;2022-08-25T04:48:33;99812.56;;;22.63;62.98
20755;BME280;26385;48.470;7.938;2022-08-25T04:51:04;99807.59;;;22.54;63.08
20755;BME280;26385;48.470;7.938;2022-08-25T04:53:29;99823.63;;;22.48;63.70
20755;BME280;26385;48.470;7.938;2022-08-25T04:55:56;99808.75;;;22.45;63.41
20755;BME280;26385;48.470;7.938;2022-08-25T04:58:21;99809.63;;;22.46;63.80
20755;BME280;26385;48.470;7.938;2022-08-25T05:00:46;99818.53;;;22.42;63.88
20755;BME280;26385;48.470;7.938;2022-08-25T05:03:11;99820.25;;;22.43;63.59
20755;BME280;26385;48.470;7.938;2022-08-25T05:05:38;99818.47;;;22.45;63.52
20755;BME280;26385;48.470;7.938;2022-08-25T05:08:04;99818.84;;;22.33;63.71
20755;BME280;26385;48.470;7.938;2022-08-25T05:10:31;99817.88;;;22.35;63.70
20755;BME280;26385;48.470;7.938;2022-08-25T05:12:57;99807.56;;;22.29;63.88
20755;BME280;26385;48.470;7.938;2022-08-25T05:15:22;99812.81;;;22.29;64.29
20755;BME280;26385;48.470;7.938;2022-08-25T05:18:06;99815.50;;;22.28;64.11
20755;BME280;26385;48.470;7.938;2022-08-25T05:20:35;99816.31;;;22.30;63.84
20755;BME280;26385;48.470;7.938;2022-08-25T05:23:00;99799.66;;;22.28;64.04
20755;BME280;26385;48.470;7.938;2022-08-25T05:25:26;99799.66;;;22.28;64.44
20755;BME280;26385;48.470;7.938;2022-08-25T05:27:51;99800.56;;;22.27;64.38
20755;BME280;26385;48.470;7.938;2022-08-25T05:30:16;99799.66;;;22.28;64.76
20755;BME280;26385;48.470;7.938;2022-08-25T05:32:41;99790.78;;;22.30;64.51
20755;BME280;26385;48.470;7.938;2022-08-25T05:35:07;99789.56;;;22.40;64.20
20755;BME280;26385;48.470;7.938;2022-08-25T05:37:33;99782.81;;;22.32;64.39
20755;BME280;26385;48.470;7.938;2022-08-25T05:39:58;99788.91;;;22.34;64.72
20755;BME280;26385;48.470;7.938;2022-08-25T05:42:25;99789.81;;;22.33;64.56
20755;BME280;26385;48.470;7.938;2022-08-25T05:44:52;99792.06;;;22.45;64.08
20755;BME280;26385;48.470;7.938;2022-08-25T05:47:17;99784.47;;;22.61;63.61
20755;BME280;26385;48.470;7.938;2022-08-25T05:49:42;99787.44;;;22.76;63.39
20755;BME280;26385;48.470;7.938;2022-08-25T05:52:08;99779.06;;;22.90;63.05
20755;BME280;26385;48.470;7.938;2022-08-25T05:54:33;99783.50;;;23.13;62.20
20755;BME280;26385;48.470;7.938;2022-08-25T05:56:59;99779.38;;;23.29;62.02
20755;BME280;26385;48.470;7.938;2022-08-25T05:59:25;99786.63;;;23.48;60.84
20755;BME280;26385;48.470;7.938;2022-08-25T06:01:50;99793.22;;;23.59;60.75
20755;BME280;26385;48.470;7.938;2022-08-25T06:04:34;99776.34;;;23.85;59.96
20755;BME280;26385;48.470;7.938;2022-08-25T06:07:00;99769.50;;;24.02;59.41
20755;BME280;26385;48.470;7.938;2022-08-25T06:09:25;99755.50;;;24.20;58.95
20755;BME280;26385;48.470;7.938;2022-08-25T06:11:51;99756.53;;;24.39;58.25
20755;BME280;26385;48.470;7.938;2022-08-25T06:14:16;99758.31;;;24.59;57.37
20755;BME280;26385;48.470;7.938;2022-08-25T06:16:42;99762.78;;;24.78;56.86
20755;BME280;26385;48.470;7.938;2022-08-25T06:19:08;99748.69;;;24.97;56.23
20755;BME280;26385;48.470;7.938;2022-08-25T06:21:34;99746.94;;;25.17;55.73
20755;BME280;26385;48.470;7.938;2022-08-25T06:24:00;99738.13;;;25.35;54.94
20755;BME280;26385;48.470;7.938;2022-08-25T06:26:25;99732.81;;;25.54;54.23
20755;BME280;26385;48.470;7.938;2022-08-25T06:28:51;99739.97;;;25.71;54.03
20755;BME280;26385;48.470;7.938;2022-08-25T06:31:18;99745.28;;;25.90;53.49
20755;BME280;26385;48.470;7.938;2022-08-25T06:33:44;99734.59;;;26.08;52.76
20755;BME280;26385;48.470;7.938;2022-08-25T06:36:09;99726.78;;;26.23;52.19
20755;BME280;26385;48.470;7.938;2022-08-25T06:38:35;99733.06;;;26.39;52.31
20755;BME280;26385;48.470;7.938;2022-08-25T06:41:02;99742.13;;;26.52;51.81
20755;BME280;26385;48.470;7.938;2022-08-25T06:43:27;99730.81;;;26.66;51.23
20755;BME280;26385;48.470;7.938;2022-08-25T06:45:53;99737.09;;;26.81;50.90
20755;BME280;26385;48.470;7.938;2022-08-25T06:48:18;99733.78;;;26.93;50.01
20755;BME280;26385;48.470;7.938;2022-08-25T06:50:43;99736.44;;;27.10;50.15
20755;BME280;26385;48.470;7.938;2022-08-25T06:53:09;99744.53;;;27.25;49.76
20755;BME280;26385;48.470;7.938;2022-08-25T06:55:34;99736.63;;;27.39;49.83
20755;BME280;26385;48.470;7.938;2022-08-25T06:58:00;99738.63;;;27.51;49.35
20755;BME280;26385;48.470;7.938;2022-08-25T07:00:27;99732.94;;;27.57;48.88
20755;BME280;26385;48.470;7.938;2022-08-25T07:02:52;99733.63;;;27.61;48.58
20755;BME280;26385;48.470;7.938;2022-08-25T07:05:17;99738.78;;;27.64;49.08
20755;BME280;26385;48.470;7.938;2022-08-25T07:07:43;99743.03;;;27.68;48.79
20755;BME280;26385;48.470;7.938;2022-08-25T07:10:11;99743.16;;;27.65;48.66
20755;BME280;26385;48.470;7.938;2022-08-25T07:12:37;99744.53;;;27.56;48.56
20755;BME280;26385;48.470;7.938;2022-08-25T07:15:03;99745.75;;;27.51;49.02
20755;BME280;26385;48.470;7.938;2022-08-25T07:17:29;99753.72;;;27.51;49.23
20755;BME280;26385;48.470;7.938;2022-08-25T07:19:54;99751.56;;;27.57;49.46
20755;BME280;26385;48.470;7.938;2022-08-25T07:22:19;99744.38;;;27.59;49.21
20755;BME280;26385;48.470;7.938;2022-08-25T07:24:45;99753.03;;;27.63;48.64
20755;BME280;26385;48.470;7.938;2022-08-25T07:27:10;99747.50;;;27.66;49.02
20755;BME280;26385;48.470;7.938;2022-08-25T07:29:35;99750.06;;;27.69;49.12
20755;BME280;26385;48.470;7.938;2022-08-25T07:32:04;99751.69;;;27.71;48.77
20755;BME280;26385;48.470;7.938;2022-08-25T07:34:30;99746.25;;;27.73;48.87
20755;BME280;26385;48.470;7.938;2022-08-25T07:37:14;99752.53;;;27.72;48.65
20755;BME280;26385;48.470;7.938;2022-08-25T07:39:39;99754.09;;;27.76;48.55
20755;BME280;26385;48.470;7.938;2022-08-25T07:42:04;99749.34;;;27.81;48.25
20755;BME280;26385;48.470;7.938;2022-08-25T07:44:30;99759.91;;;27.83;48.48
20755;BME280;26385;48.470;7.938;2022-08-25T07:46:55;99754.34;;;27.87;48.55
20755;BME280;26385;48.470;7.938;2022-08-25T07:49:23;99756.75;;;27.92;48.18
20755;BME280;26385;48.470;7.938;2022-08-25T07:51:53;99758.47;;;27.93;48.23
20755;BME280;26385;48.470;7.938;2022-08-25T07:54:19;99754.00;;;27.93;48.57
20755;BME280;26385;48.470;7.938;2022-08-25T07:56:44;99759.13;;;27.96;48.61
20755;BME280;26385;48.470;7.938;2022-08-25T07:59:09;99756.97;;;28.03;48.35
20755;BME280;26385;48.470;7.938;2022-08-25T08:01:35;99755.84;;;28.07;48.18
20755;BME280;26385;48.470;7.938;2022-08-25T08:04:01;99759.28;;;28.09;48.04
20755;BME280;26385;48.470;7.938;2022-08-25T08:06:27;99758.16;;;28.13;48.29
20755;BME280;26385;48.470;7.938;2022-08-25T08:08:53;99761.00;;;28.10;48.38
20755;BME280;26385;48.470;7.938;2022-08-25T08:11:22;99770.81;;;28.10;48.42
20755;BME280;26385;48.470;7.938;2022-08-25T08:13:48;99775.41;;;28.22;48.06
20755;BME280;26385;48.470;7.938;2022-08-25T08:16:15;99767.31;;;28.23;48.00
20755;BME280;26385;48.470;7.938;2022-08-25T08:18:43;99761.31;;;28.36;47.71
20755;BME280;26385;48.470;7.938;2022-08-25T08:21:18;99768.16;;;28.40;47.77
20755;BME280;26385;48.470;7.938;2022-08-25T08:23:44;99760.00;;;28.43;47.50
20755;BME280;26385;48.470;7.938;2022-08-25T08:26:10;99760.22;;;28.54;47.39
20755;BME280;26385;48.470;7.938;2022-08-25T08:28:35;99754.78;;;28.55;47.23
20755;BME280;26385;48.470;7.938;2022-08-25T08:31:01;99755.28;;;28.62;47.42
20755;BME280;26385;48.470;7.938;2022-08-25T08:33:26;99739.38;;;28.75;47.02
20755;BME280;26385;48.470;7.938;2022-08-25T08:36:03;99735.69;;;28.77;46.20
20755;BME280;26385;48.470;7.938;2022-08-25T08:38:29;99734.44;;;28.83;46.67
20755;BME280;26385;48.470;7.938;2022-08-25T08:41:10;99739.25;;;28.92;46.47
20755;BME280;26385;48.470;7.938;2022-08-25T08:44:05;99738.00;;;29.12;45.87
20755;BME280;26385;48.470;7.938;2022-08-25T08:46:39;99728.47;;;29.22;45.67
20755;BME280;26385;48.470;7.938;2022-08-25T08:52:09;99733.59;;;29.39;44.89
20755;BME280;26385;48.470;7.938;2022-08-25T08:54:38;99735.41;;;29.53;44.70
20755;BME280;26385;48.470;7.938;2022-08-25T08:57:18;99742.44;;;29.68;44.64
20755;BME280;26385;48.470;7.938;2022-08-25T08:59:50;99719.53;;;29.79;44.13
20755;BME280;26385;48.470;7.938;2022-08-25T09:02:25;99727.66;;;29.90;43.75
20755;BME280;26385;48.470;7.938;2022-08-25T09:04:57;99724.69;;;29.94;43.33
20755;BME280;26385;48.470;7.938;2022-08-25T09:07:29;99725.63;;;30.08;43.09
20755;BME280;26385;48.470;7.938;2022-08-25T09:09:56;99723.09;;;30.19;42.45
20755;BME280;26385;48.470;7.938;2022-08-25T09:15:48;99713.50;;;30.42;41.73
20755;BME280;26385;48.470;7.938;2022-08-25T09:18:48;99716.53;;;30.63;41.64
20755;BME280;26385;48.470;7.938;2022-08-25T09:21:47;99717.19;;;30.79;40.48
20755;BME280;26385;48.470;7.938;2022-08-25T09:24:56;99713.72;;;31.02;40.45
20755;BME280;26385;48.470;7.938;2022-08-25T09:30:13;99710.41;;;31.37;39.41
20755;BME280;26385;48.470;7.938;2022-08-25T09:32:59;99714.81;;;31.62;38.45
20755;BME280;26385;48.470;7.938;2022-08-25T09:35:34;99708.84;;;31.82;38.49
20755;BME280;26385;48.470;7.938;2022-08-25T09:38:05;99701.91;;;32.04;38.37
20755;BME280;26385;48.470;7.938;2022-08-25T09:40:34;99699.38;;;32.25;37.79
20755;BME280;26385;48.470;7.938;2022-08-25T09:43:02;99699.50;;;32.47;36.47
20755;BME280;26385;48.470;7.938;2022-08-25T09:45:39;99691.84;;;32.65;35.96
20755;BME280;26385;48.470;7.938;2022-08-25T09:48:26;99693.41;;;32.78;36.27
20755;BME280;26385;48.470;7.938;2022-08-25T09:50:57;99683.19;;;32.95;35.67
20755;BME280;26385;48.470;7.938;2022-08-25T09:53:24;99689.56;;;33.05;35.72
20755;BME280;26385;48.470;7.938;2022-08-25T09:56:02;99688.69;;;33.16;35.76
20755;BME280;26385;48.470;7.938;2022-08-25T09:58:30;99682.09;;;33.31;34.95
20755;BME280;26385;48.470;7.938;2022-08-25T10:01:03;99680.97;;;33.45;35.16
20755;BME280;26385;48.470;7.938;2022-08-25T10:03:29;99673.22;;;33.63;34.80
20755;BME280;26385;48.470;7.938;2022-08-25T10:05:59;99672.47;;;33.72;34.18
20755;BME280;26385;48.470;7.938;2022-08-25T10:08:34;99671.53;;;33.94;34.03
20755;BME280;26385;48.470;7.938;2022-08-25T10:11:03;99669.91;;;34.02;34.00
20755;BME280;26385;48.470;7.938;2022-08-25T10:16:37;99666.97;;;34.05;34.08
20755;BME280;26385;48.470;7.938;2022-08-25T10:21:29;99662.91;;;34.11;34.09
20755;BME280;26385;48.470;7.938;2022-08-25T10:23:55;99658.41;;;34.32;33.65
20755;BME280;26385;48.470;7.938;2022-08-25T10:29:31;99660.66;;;34.48;32.96
20755;BME280;26385;48.470;7.938;2022-08-25T10:34:43;99657.09;;;34.78;32.12
20755;BME280;26385;48.470;7.938;2022-08-25T10:37:26;99654.69;;;34.75;31.77
20755;BME280;26385;48.470;7.938;2022-08-25T10:40:20;99645.50;;;34.87;31.46
20755;BME280;26385;48.470;7.938;2022-08-25T10:45:46;99637.97;;;34.30;32.18
20755;BME280;26385;48.470;7.938;2022-08-25T10:48:37;99633.38;;;33.47;33.00
20755;BME280;26385;48.470;7.938;2022-08-25T10:51:28;99628.56;;;33.07;33.70
20755;BME280;26385;48.470;7.938;2022-08-25T10:53:57;99620.88;;;33.57;33.35
20755;BME280;26385;48.470;7.938;2022-08-25T10:56:32;99628.59;;;33.82;32.82
20755;BME280;26385;48.470;7.938;2022-08-25T11:02:11;99620.13;;;34.29;32.24
20755;BME280;26385;48.470;7.938;2022-08-25T11:04:47;99611.84;;;34.62;32.09
20755;BME280;26385;48.470;7.938;2022-08-25T11:07:36;99606.13;;;34.86;32.02
20755;BME280;26385;48.470;7.938;2022-08-25T11:10:07;99609.72;;;34.96;31.64
20755;BME280;26385;48.470;7.938;2022-08-25T11:12:38;99604.81;;;35.11;31.35
20755;BME280;26385;48.470;7.938;2022-08-25T11:15:11;99603.97;;;35.20;31.65
20755;BME280;26385;48.470;7.938;2022-08-25T11:18:02;99600.03;;;35.34;31.01
20755;BME280;26385;48.470;7.938;2022-08-25T11:20:36;99599.66;;;35.48;30.79
20755;BME280;26385;48.470;7.938;2022-08-25T11:23:25;99599.22;;;35.63;30.78
20755;BME280;26385;48.470;7.938;2022-08-25T11:25:58;99584.72;;;35.73;30.15
20755;BME280;26385;48.470;7.938;2022-08-25T11:28:52;99585.88;;;35.80;29.73
20755;BME280;26385;48.470;7.938;2022-08-25T11:31:22;99584.75;;;35.44;29.58
20755;BME280;26385;48.470;7.938;2022-08-25T11:33:49;99585.91;;;35.51;29.91
20755;BME280;26385;48.470;7.938;2022-08-25T11:39:08;99571.84;;;35.77;29.90
20755;BME280;26385;48.470;7.938;2022-08-25T11:42:02;99574.25;;;35.90;28.89
20755;BME280;26385;48.470;7.938;2022-08-25T11:49:52;99573.19;;;36.20;28.66
20755;BME280;26385;48.470;7.938;2022-08-25T11:55:04;99566.75;;;36.40;28.33
20755;BME280;26385;48.470;7.938;2022-08-25T11:57:30;99555.97;;;36.40;28.24
20755;BME280;26385;48.470;7.938;2022-08-25T12:00:09;99554.09;;;36.41;28.72
20755;BME280;26385;48.470;7.938;2022-08-25T12:10:17;99542.56;;;36.48;28.77
20755;BME280;26385;48.470;7.938;2022-08-25T12:15:20;99546.78;;;36.60;27.68
20755;BME280;26385;48.470;7.938;2022-08-25T12:18:19;99552.44;;;36.67;28.14
20755;BME280;26385;48.470;7.938;2022-08-25T12:21:09;99537.31;;;36.84;27.52
20755;BME280;26385;48.470;7.938;2022-08-25T12:23:40;99544.88;;;36.98;28.18
20755;BME280;26385;48.470;7.938;2022-08-25T12:26:27;99541.41;;;36.88;27.24
20755;BME280;26385;48.470;7.938;2022-08-25T12:29:05;99539.19;;;37.01;27.24
20755;BME280;26385;48.470;7.938;2022-08-25T12:37:11;99529.78;;;37.23;27.03
20755;BME280;26385;48.470;7.938;2022-08-25T12:39:52;99528.75;;;37.34;26.74
20755;BME280;26385;48.470;7.938;2022-08-25T12:42:29;99524.09;;;37.44;26.41
20755;BME280;26385;48.470;7.938;2022-08-25T12:47:40;99520.31;;;37.37;26.37
20755;BME280;26385;48.470;7.938;2022-08-25T12:52:54;99518.63;;;37.36;26.69
20755;BME280;26385;48.470;7.938;2022-08-25T12:55:26;99515.38;;;37.32;26.74
20755;BME280;26385;48.470;7.938;2022-08-25T12:57:53;99514.50;;;37.14;27.01
20755;BME280;26385;48.470;7.938;2022-08-25T13:00:28;99504.53;;;37.14;26.78
20755;BME280;26385;48.470;7.938;2022-08-25T13:08:52;99510.34;;;36.09;26.79
20755;BME280;26385;48.470;7.938;2022-08-25T13:11:24;99502.16;;;36.39;26.63
20755;BME280;26385;48.470;7.938;2022-08-25T13:14:21;99495.81;;;36.57;26.91
20755;BME280;26385;48.470;7.938;2022-08-25T13:16:54;99494.84;;;36.76;26.34
20755;BME280;26385;48.470;7.938;2022-08-25T13:19:20;99495.22;;;36.81;26.33
20755;BME280;26385;48.470;7.938;2022-08-25T13:21:47;99493.84;;;36.77;26.64
20755;BME280;26385;48.470;7.938;2022-08-25T13:24:23;99495.00;;;36.75;27.24
20755;BME280;26385;48.470;7.938;2022-08-25T13:26:53;99497.84;;;36.73;26.89
20755;BME280;26385;48.470;7.938;2022-08-25T13:29:31;99493.72;;;36.51;27.11
20755;BME280;26385;48.470;7.938;2022-08-25T13:32:06;99482.38;;;36.48;26.89
20755;BME280;26385;48.470;7.938;2022-08-25T13:34:36;99482.59;;;36.36;27.60
20755;BME280;26385;48.470;7.938;2022-08-25T13:37:08;99482.53;;;36.46;27.18
20755;BME280;26385;48.470;7.938;2022-08-25T13:40:22;99477.84;;;36.66;27.70
20755;BME280;26385;48.470;7.938;2022-08-25T13:42:51;99468.03;;;36.75;27.33
20755;BME280;26385;48.470;7.938;2022-08-25T13:45:20;99476.16;;;36.83;27.03
20755;BME280;26385;48.470;7.938;2022-08-25T13:47:47;99474.47;;;36.91;27.17
20755;BME280;26385;48.470;7.938;2022-08-25T13:50:35;99465.44;;;37.01;27.15
20755;BME280;26385;48.470;7.938;2022-08-25T13:53:05;99474.06;;;37.04;26.96
20755;BME280;26385;48.470;7.938;2022-08-25T13:55:37;99459.72;;;37.04;27.06
20755;BME280;26385;48.470;7.938;2022-08-25T13:58:05;99455.78;;;36.98;26.38
20755;BME280;26385;48.470;7.938;2022-08-25T14:00:43;99454.56;;;36.92;27.25
20755;BME280;26385;48.470;7.938;2022-08-25T14:03:35;99452.78;;;37.01;26.78
20755;BME280;26385;48.470;7.938;2022-08-25T14:08:43;99452.06;;;36.99;26.87
20755;BME280;26385;48.470;7.938;2022-08-25T14:11:12;99452.78;;;37.01;26.97
20755;BME280;26385;48.470;7.938;2022-08-25T14:13:39;99450.38;;;36.98;27.27
20755;BME280;26385;48.470;7.938;2022-08-25T14:16:21;99449.00;;;36.94;27.58
20755;BME280;26385;48.470;7.938;2022-08-25T14:18:52;99458.78;;;36.95;27.00
20755;BME280;26385;48.470;7.938;2022-08-25T14:21:22;99449.19;;;36.83;27.17